createdAt,value
2017-10-26T00:00:07.975Z,12.20
2017-10-26T00:02:37.077Z,12.63
2017-10-26T00:05:06.364Z,12.90
2017-10-26T00:07:35.472Z,13.97
2017-10-26T00:10:04.578Z,12.53
2017-10-26T00:12:33.814Z,12.30
2017-10-26T00:15:02.880Z,11.70
2017-10-26T00:17:32.124Z,12.50
2017-10-26T00:20:01.926Z,12.00
2017-10-26T00:22:31.192Z,11.67
2017-10-26T00:25:00.295Z,11.60
2017-10-26T00:27:35.712Z,12.13
2017-10-26T00:30:04.948Z,11.20
2017-10-26T00:32:44.287Z,12.10
2017-10-26T00:35:13.542Z,11.67
2017-10-26T00:37:42.787Z,12.07
2017-10-26T00:40:13.458Z,11.37
2017-10-26T00:42:42.577Z,12.43
2017-10-26T00:45:11.837Z,12.90
2017-10-26T00:47:41.032Z,12.60
2017-10-26T00:50:10.116Z,12.23
2017-10-26T00:52:39.238Z,12.40
2017-10-26T00:55:16.419Z,11.97
2017-10-26T00:57:45.557Z,12.00
2017-10-26T01:00:17.780Z,12.80
2017-10-26T01:02:46.894Z,12.17
2017-10-26T01:05:15.967Z,11.53
2017-10-26T01:07:45.096Z,12.23
2017-10-26T01:10:14.225Z,12.23
2017-10-26T01:12:43.332Z,12.17
2017-10-26T01:15:12.410Z,12.70
2017-10-26T01:17:42.226Z,12.70
2017-10-26T01:20:11.375Z,11.83
2017-10-26T01:22:44.467Z,12.10
2017-10-26T01:25:13.573Z,12.40
2017-10-26T01:27:42.667Z,12.40
2017-10-26T01:30:11.943Z,12.37
2017-10-26T01:32:41.105Z,12.00
2017-10-26T01:35:10.207Z,11.53
2017-10-26T01:37:39.311Z,14.10
2017-10-26T01:40:08.431Z,11.70
2017-10-26T01:42:37.735Z,13.30
2017-10-26T01:45:06.868Z,11.70
2017-10-26T01:47:36.212Z,12.07
2017-10-26T01:50:05.496Z,11.87
2017-10-26T01:52:35.230Z,12.47
2017-10-26T01:55:05.468Z,12.87
2017-10-26T01:57:42.305Z,12.43
2017-10-26T02:00:11.528Z,11.87
2017-10-26T02:02:40.923Z,12.97
2017-10-26T02:05:10.359Z,12.30
2017-10-26T02:07:39.608Z,13.23
2017-10-26T02:10:08.814Z,12.33
2017-10-26T02:12:45.316Z,13.40
2017-10-26T02:15:14.500Z,14.10
2017-10-26T02:17:43.645Z,12.30
2017-10-26T02:20:20.079Z,14.90
2017-10-26T02:22:49.498Z,14.07
2017-10-26T02:25:18.724Z,13.47
2017-10-26T02:27:54.007Z,14.83
2017-10-26T02:30:28.894Z,13.23
2017-10-26T02:32:58.698Z,13.87
2017-10-26T02:35:27.919Z,12.93
2017-10-26T02:37:57.322Z,12.83
2017-10-26T02:40:26.465Z,13.27
2017-10-26T02:42:55.979Z,12.70
2017-10-26T02:45:32.868Z,13.73
2017-10-26T02:48:02.121Z,13.23
2017-10-26T02:50:31.204Z,14.00
2017-10-26T02:53:00.312Z,13.50
2017-10-26T02:55:29.419Z,13.93
2017-10-26T02:58:05.479Z,15.00
2017-10-26T03:00:34.599Z,14.47
2017-10-26T03:03:03.764Z,14.67
2017-10-26T03:05:33.838Z,15.00
2017-10-26T03:08:08.996Z,13.07
2017-10-26T03:10:38.230Z,15.60
2017-10-26T03:13:19.774Z,14.10
2017-10-26T03:15:48.899Z,15.80
2017-10-26T03:18:18.007Z,16.03
2017-10-26T03:20:47.255Z,14.80
2017-10-26T03:23:16.347Z,16.60
2017-10-26T03:25:45.448Z,14.43
2017-10-26T03:28:14.698Z,18.10
2017-10-26T03:30:44.334Z,15.33
2017-10-26T03:33:13.932Z,16.67
2017-10-26T03:35:43.034Z,13.70
2017-10-26T03:38:12.152Z,15.90
2017-10-26T03:40:41.391Z,16.23
2017-10-26T03:43:10.499Z,15.97
2017-10-26T03:45:39.587Z,16.70
2017-10-26T03:48:14.647Z,15.10
2017-10-26T03:50:45.095Z,16.20
2017-10-26T03:53:14.456Z,15.90
2017-10-26T03:55:43.555Z,16.70
2017-10-26T03:58:12.646Z,18.70
2017-10-26T04:00:41.760Z,17.40
2017-10-26T04:03:10.886Z,19.20
2017-10-26T04:05:39.975Z,17.40
2017-10-26T04:08:09.207Z,17.60
2017-10-26T04:10:39.834Z,17.37
2017-10-26T04:13:09.058Z,17.60
2017-10-26T04:15:38.177Z,17.60
2017-10-26T04:18:09.169Z,17.70
2017-10-26T04:20:44.648Z,16.10
2017-10-26T04:23:20.574Z,17.73
2017-10-26T04:25:49.835Z,16.17
2017-10-26T04:28:18.995Z,19.50
2017-10-26T04:30:48.211Z,18.43
2017-10-26T04:33:27.508Z,19.50
2017-10-26T04:35:56.651Z,18.53
2017-10-26T04:38:25.916Z,17.30
2017-10-26T04:41:01.944Z,16.20
2017-10-26T04:43:45.304Z,18.30
2017-10-26T04:46:15.345Z,18.20
2017-10-26T04:48:51.120Z,17.17
2017-10-26T04:51:20.191Z,19.40
2017-10-26T04:53:49.452Z,17.77
2017-10-26T04:56:18.815Z,18.67
2017-10-26T04:58:47.911Z,16.83
2017-10-26T05:01:17.651Z,18.37
2017-10-26T05:03:46.719Z,18.80
2017-10-26T05:06:15.819Z,18.97
2017-10-26T05:08:44.916Z,17.80
2017-10-26T05:11:13.980Z,18.07
2017-10-26T05:13:43.080Z,20.70
2017-10-26T05:16:12.160Z,19.60
2017-10-26T05:18:41.236Z,20.87
2017-10-26T05:21:10.335Z,19.37
2017-10-26T05:23:46.828Z,18.37
2017-10-26T05:26:21.935Z,21.20
2017-10-26T05:28:51.137Z,18.50
2017-10-26T05:31:20.441Z,23.63
2017-10-26T05:33:57.260Z,20.83
2017-10-26T05:36:26.352Z,20.23
2017-10-26T05:38:55.460Z,23.57
2017-10-26T05:41:37.819Z,27.03
2017-10-26T05:44:06.951Z,25.10
2017-10-26T05:46:36.085Z,24.40
2017-10-26T05:49:05.183Z,26.23
2017-10-26T05:51:34.602Z,24.07
2017-10-26T05:54:11.011Z,23.63
2017-10-26T05:56:40.124Z,21.80
2017-10-26T05:59:09.208Z,20.80
2017-10-26T06:01:40.123Z,18.10
2017-10-26T06:04:09.364Z,19.33
2017-10-26T06:06:38.467Z,20.07
2017-10-26T06:09:07.538Z,19.30
2017-10-26T06:11:36.617Z,19.33
2017-10-26T06:14:05.712Z,19.37
2017-10-26T06:16:34.790Z,20.10
2017-10-26T06:19:17.948Z,20.13
2017-10-26T06:21:47.179Z,19.90
2017-10-26T06:24:16.268Z,18.60
2017-10-26T06:26:45.375Z,16.33
2017-10-26T06:29:14.489Z,21.33
2017-10-26T06:31:43.787Z,18.30
2017-10-26T06:34:12.994Z,17.33
2017-10-26T06:36:42.075Z,16.97
2017-10-26T06:39:19.701Z,18.47
2017-10-26T06:41:48.819Z,18.33
2017-10-26T06:44:17.908Z,17.93
2017-10-26T06:46:47.140Z,17.83
2017-10-26T06:49:16.402Z,17.50
2017-10-26T06:51:45.490Z,19.00
2017-10-26T06:54:14.555Z,19.83
2017-10-26T06:56:43.828Z,17.33
2017-10-26T06:59:13.044Z,18.03
2017-10-26T07:01:43.464Z,17.83
2017-10-26T07:04:12.572Z,17.33
2017-10-26T07:06:41.668Z,18.00
2017-10-26T07:09:15.187Z,14.73
2017-10-26T07:11:45.640Z,14.60
2017-10-26T07:14:14.760Z,15.20
2017-10-26T07:16:43.843Z,13.40
2017-10-26T07:19:12.920Z,13.40
2017-10-26T07:21:42.082Z,12.37
2017-10-26T07:24:11.936Z,13.63
2017-10-26T07:26:41.009Z,12.53
2017-10-26T07:29:10.117Z,11.87
2017-10-26T07:31:49.452Z,12.93
2017-10-26T07:34:18.481Z,11.17
2017-10-26T07:36:47.591Z,13.33
2017-10-26T07:39:16.637Z,11.53
2017-10-26T07:41:45.887Z,12.60
2017-10-26T07:44:15.043Z,11.90
2017-10-26T07:46:44.350Z,11.87
2017-10-26T07:49:15.129Z,10.73
2017-10-26T07:51:44.316Z,12.53
2017-10-26T07:54:13.420Z,10.57
2017-10-26T07:56:48.891Z,11.70
2017-10-26T07:59:17.965Z,13.23
2017-10-26T08:01:47.163Z,12.23
2017-10-26T08:04:16.457Z,11.13
2017-10-26T08:06:45.558Z,11.17
2017-10-26T08:09:14.650Z,12.10
2017-10-26T08:11:43.867Z,10.57
2017-10-26T08:14:21.891Z,11.00
2017-10-26T08:16:51.080Z,11.50
2017-10-26T08:19:20.200Z,10.60
2017-10-26T08:21:49.348Z,10.30
2017-10-26T08:24:24.787Z,9.60
2017-10-26T08:26:54.403Z,11.30
2017-10-26T08:29:24.407Z,10.50
2017-10-26T08:31:54.607Z,9.43
2017-10-26T08:34:29.873Z,10.00
2017-10-26T08:36:58.955Z,9.30
2017-10-26T08:39:28.837Z,9.63
2017-10-26T08:41:57.974Z,10.77
2017-10-26T08:44:27.068Z,10.70
2017-10-26T08:46:56.375Z,10.13
2017-10-26T08:49:26.039Z,9.73
2017-10-26T08:51:56.169Z,11.17
2017-10-26T08:54:31.667Z,10.63
2017-10-26T08:57:00.980Z,10.30
2017-10-26T08:59:30.064Z,10.40
2017-10-26T09:01:59.203Z,10.50
2017-10-26T09:04:28.336Z,11.10
2017-10-26T09:06:57.495Z,11.27
2017-10-26T09:09:26.785Z,11.90
2017-10-26T09:11:55.873Z,10.77
2017-10-26T09:14:27.849Z,10.77
2017-10-26T09:17:10.698Z,10.10
2017-10-26T09:19:39.931Z,10.83
2017-10-26T09:22:09.073Z,10.13
2017-10-26T09:24:38.549Z,9.00
2017-10-26T09:27:07.827Z,9.00
2017-10-26T09:29:38.196Z,9.70
2017-10-26T09:32:07.360Z,7.80
2017-10-26T09:34:36.454Z,6.80
2017-10-26T09:37:05.786Z,6.97
2017-10-26T09:39:35.409Z,6.90
2017-10-26T09:42:04.708Z,7.30
2017-10-26T09:44:33.827Z,6.30
2017-10-26T09:47:03.119Z,6.03
2017-10-26T09:49:32.299Z,7.40
2017-10-26T09:52:07.419Z,8.43
2017-10-26T09:54:36.688Z,9.37
2017-10-26T09:57:05.808Z,9.13
2017-10-26T09:59:35.330Z,9.57
2017-10-26T10:02:04.725Z,10.17
2017-10-26T10:04:33.969Z,9.00
2017-10-26T10:07:03.547Z,10.63
2017-10-26T10:09:32.700Z,10.83
2017-10-26T10:12:02.154Z,9.30
2017-10-26T10:14:31.412Z,7.80
2017-10-26T10:17:00.551Z,7.80
2017-10-26T10:19:29.696Z,7.50
2017-10-26T10:21:58.830Z,5.80
2017-10-26T10:24:27.992Z,6.97
2017-10-26T10:26:57.102Z,7.00
2017-10-26T10:29:26.207Z,6.30
2017-10-26T10:31:56.288Z,6.57
2017-10-26T10:34:25.419Z,6.37
2017-10-26T10:36:55.992Z,6.90
2017-10-26T10:39:25.129Z,5.97
2017-10-26T10:41:54.247Z,5.97
2017-10-26T10:44:23.380Z,4.83
2017-10-26T10:47:07.295Z,5.50
2017-10-26T10:49:36.528Z,4.97
2017-10-26T10:52:05.672Z,3.40
2017-10-26T10:54:34.773Z,3.50
2017-10-26T10:57:04.289Z,4.43
2017-10-26T10:59:39.025Z,3.97
2017-10-26T11:02:08.373Z,3.00
2017-10-26T11:04:37.524Z,3.60
2017-10-26T11:07:06.630Z,3.67
2017-10-26T11:09:35.715Z,3.60
2017-10-26T11:12:18.125Z,3.37
2017-10-26T11:14:48.215Z,3.00
2017-10-26T11:17:17.336Z,3.30
2017-10-26T11:19:53.243Z,3.13
2017-10-26T11:22:22.377Z,3.57
2017-10-26T11:24:52.876Z,2.90
2017-10-26T11:27:22.212Z,2.83
2017-10-26T11:29:51.499Z,4.30
2017-10-26T11:32:20.592Z,3.23
2017-10-26T11:34:49.723Z,3.87
2017-10-26T11:37:19.714Z,3.03
2017-10-26T11:39:48.883Z,3.83
2017-10-26T11:42:18.005Z,3.60
2017-10-26T11:44:47.424Z,3.77
2017-10-26T11:47:16.544Z,3.00
2017-10-26T11:49:45.788Z,3.60
2017-10-26T11:52:15.032Z,3.57
2017-10-26T11:54:44.151Z,3.13
2017-10-26T11:57:13.305Z,3.27
2017-10-26T11:59:55.405Z,3.27
2017-10-26T12:02:24.724Z,3.53
2017-10-26T12:04:53.874Z,3.23
2017-10-26T12:07:23.947Z,4.20
2017-10-26T12:09:54.524Z,3.57
2017-10-26T12:12:23.662Z,2.90
2017-10-26T12:14:52.737Z,3.13
2017-10-26T12:17:22.430Z,3.07
2017-10-26T12:19:52.218Z,3.00
2017-10-26T12:22:21.487Z,2.93
2017-10-26T12:24:52.276Z,3.60
2017-10-26T12:27:21.374Z,3.20
2017-10-26T12:29:50.489Z,3.90
2017-10-26T12:32:19.825Z,3.90
2017-10-26T12:34:49.029Z,3.50
2017-10-26T12:37:18.605Z,3.00
2017-10-26T12:39:47.745Z,3.13
2017-10-26T12:42:17.027Z,3.57
2017-10-26T12:44:46.608Z,4.00
2017-10-26T12:47:16.075Z,3.37
2017-10-26T12:49:45.192Z,4.20
2017-10-26T12:52:21.756Z,3.83
2017-10-26T12:54:50.856Z,3.90
2017-10-26T12:57:20.076Z,3.80
2017-10-26T12:59:49.179Z,3.90
2017-10-26T13:02:18.777Z,3.53
2017-10-26T13:04:47.924Z,4.37
2017-10-26T13:07:17.127Z,5.00
2017-10-26T13:09:46.242Z,4.43
2017-10-26T13:12:15.680Z,5.40
2017-10-26T13:14:46.512Z,4.50
2017-10-26T13:17:16.999Z,5.03
2017-10-26T13:19:46.490Z,4.90
2017-10-26T13:22:15.601Z,4.93
2017-10-26T13:24:44.731Z,5.43
2017-10-26T13:27:14.935Z,5.70
2017-10-26T13:29:44.028Z,5.50
2017-10-26T13:32:13.140Z,4.70
2017-10-26T13:34:44.131Z,4.90
2017-10-26T13:37:19.368Z,4.70
2017-10-26T13:39:48.600Z,4.90
2017-10-26T13:42:17.821Z,5.83
2017-10-26T13:44:47.991Z,5.00
2017-10-26T13:47:17.325Z,5.13
2017-10-26T13:49:46.671Z,4.87
2017-10-26T13:52:16.013Z,5.43
2017-10-26T13:54:45.120Z,6.00
2017-10-26T13:57:14.965Z,5.90
2017-10-26T13:59:45.041Z,6.50
2017-10-26T14:02:14.439Z,6.47
2017-10-26T14:04:43.761Z,6.67
2017-10-26T14:07:12.846Z,5.50
2017-10-26T14:09:41.910Z,6.00
2017-10-26T14:12:11.011Z,6.40
2017-10-26T14:14:40.265Z,6.43
2017-10-26T14:17:09.328Z,5.90
2017-10-26T14:19:38.388Z,7.07
2017-10-26T14:22:08.341Z,6.07
2017-10-26T14:24:37.431Z,6.60
2017-10-26T14:27:15.501Z,5.03
2017-10-26T14:29:44.718Z,5.70
2017-10-26T14:32:13.934Z,5.50
2017-10-26T14:34:43.139Z,5.00
2017-10-26T14:37:12.540Z,5.13
2017-10-26T14:39:42.096Z,5.60
2017-10-26T14:42:11.285Z,5.10
2017-10-26T14:44:40.432Z,5.00
2017-10-26T14:47:10.159Z,4.87
2017-10-26T14:49:39.407Z,5.50
2017-10-26T14:52:08.789Z,5.83
2017-10-26T14:54:37.847Z,6.87
2017-10-26T14:57:07.909Z,6.13
2017-10-26T14:59:37.011Z,5.40
2017-10-26T15:02:06.312Z,5.87
2017-10-26T15:04:35.353Z,7.90
2017-10-26T15:07:05.020Z,6.70
2017-10-26T15:09:34.272Z,4.90
2017-10-26T15:12:03.672Z,6.13
2017-10-26T15:14:33.082Z,6.63
2017-10-26T15:17:02.157Z,6.27
2017-10-26T15:19:31.246Z,7.30
2017-10-26T15:22:00.292Z,7.10
2017-10-26T15:24:29.386Z,7.97
2017-10-26T15:26:58.483Z,6.93
2017-10-26T15:29:27.680Z,6.57
2017-10-26T15:31:56.873Z,8.27
2017-10-26T15:34:25.949Z,8.43
2017-10-26T15:36:55.089Z,6.93
2017-10-26T15:39:24.188Z,7.23
2017-10-26T15:41:53.288Z,6.90
2017-10-26T15:44:22.342Z,6.43
2017-10-26T15:46:51.540Z,5.43
2017-10-26T15:49:27.712Z,6.00
2017-10-26T15:51:56.829Z,5.70
2017-10-26T15:54:26.277Z,5.77
2017-10-26T15:56:55.565Z,4.30
2017-10-26T15:59:24.612Z,6.20
2017-10-26T16:01:53.717Z,6.03
2017-10-26T16:04:22.953Z,6.10
2017-10-26T16:06:52.177Z,6.00
2017-10-26T16:09:33.440Z,6.70
2017-10-26T16:12:02.771Z,5.47
2017-10-26T16:14:32.023Z,7.60
2017-10-26T16:17:01.483Z,6.63
2017-10-26T16:19:30.657Z,7.07
2017-10-26T16:22:00.108Z,6.30
2017-10-26T16:24:29.195Z,7.20
2017-10-26T16:26:58.598Z,7.67
2017-10-26T16:29:27.795Z,7.33
2017-10-26T16:31:56.868Z,7.60
2017-10-26T16:34:25.963Z,6.83
2017-10-26T16:36:55.037Z,7.77
2017-10-26T16:39:24.100Z,6.33
2017-10-26T16:41:53.277Z,7.50
2017-10-26T16:44:22.376Z,6.83
2017-10-26T16:46:52.481Z,5.60
2017-10-26T16:49:21.962Z,6.70
2017-10-26T16:51:58.645Z,6.93
2017-10-26T16:54:27.949Z,8.10
2017-10-26T16:56:57.034Z,7.37
2017-10-26T16:59:26.321Z,7.03
2017-10-26T17:01:55.407Z,6.63
2017-10-26T17:04:24.479Z,7.60
2017-10-26T17:06:53.585Z,7.30
2017-10-26T17:09:37.997Z,7.90
2017-10-26T17:12:07.182Z,7.73
2017-10-26T17:14:39.441Z,7.67
2017-10-26T17:17:21.427Z,7.37
2017-10-26T17:19:50.534Z,8.20
2017-10-26T17:22:32.543Z,8.30
2017-10-26T17:25:01.963Z,9.70
2017-10-26T17:27:38.918Z,9.37
2017-10-26T17:30:08.078Z,8.20
2017-10-26T17:32:38.898Z,8.97
2017-10-26T17:35:07.968Z,9.07
2017-10-26T17:37:43.099Z,9.50
2017-10-26T17:40:12.196Z,10.63
2017-10-26T17:42:41.474Z,10.10
2017-10-26T17:45:10.626Z,10.97
2017-10-26T17:47:53.080Z,11.37
2017-10-26T17:50:22.153Z,11.70
2017-10-26T17:52:52.048Z,11.57
2017-10-26T17:55:21.108Z,11.00
2017-10-26T17:57:50.197Z,12.50
2017-10-26T18:00:19.261Z,11.87
2017-10-26T18:02:48.730Z,11.40
2017-10-26T18:05:18.139Z,13.27
2017-10-26T18:07:47.215Z,12.20
2017-10-26T18:10:16.338Z,11.97
2017-10-26T18:12:57.101Z,11.83
2017-10-26T18:15:29.648Z,12.80
2017-10-26T18:17:58.849Z,12.97
2017-10-26T18:20:27.962Z,13.40
2017-10-26T18:22:57.080Z,12.63
2017-10-26T18:25:26.156Z,13.83
2017-10-26T18:27:55.266Z,13.30
2017-10-26T18:30:24.520Z,11.70
2017-10-26T18:32:53.750Z,12.67
2017-10-26T18:35:22.998Z,12.97
2017-10-26T18:37:52.197Z,12.00
2017-10-26T18:40:21.305Z,13.57
2017-10-26T18:42:50.417Z,13.43
2017-10-26T18:45:20.524Z,12.30
2017-10-26T18:47:49.633Z,11.83
2017-10-26T18:50:18.681Z,12.63
2017-10-26T18:52:47.883Z,13.50
2017-10-26T18:55:17.003Z,13.17
2017-10-26T18:57:47.946Z,13.00
2017-10-26T19:00:17.090Z,14.43
2017-10-26T19:02:49.786Z,13.13
2017-10-26T19:05:31.649Z,14.00
2017-10-26T19:08:00.782Z,14.17
2017-10-26T19:10:30.111Z,14.23
2017-10-26T19:12:59.326Z,13.13
2017-10-26T19:15:28.760Z,13.70
2017-10-26T19:18:04.165Z,12.47
2017-10-26T19:20:33.408Z,13.67
2017-10-26T19:23:02.600Z,15.23
2017-10-26T19:25:31.964Z,14.87
2017-10-26T19:28:01.194Z,15.23
2017-10-26T19:30:30.358Z,13.80
2017-10-26T19:32:59.458Z,14.93
2017-10-26T19:35:28.523Z,14.27
2017-10-26T19:37:57.627Z,14.63
2017-10-26T19:40:26.692Z,14.30
2017-10-26T19:42:55.808Z,14.47
2017-10-26T19:45:25.352Z,14.70
2017-10-26T19:47:54.438Z,15.17
2017-10-26T19:50:23.498Z,13.33
2017-10-26T19:52:52.594Z,14.30
2017-10-26T19:55:21.728Z,15.27
2017-10-26T19:57:51.155Z,15.20
2017-10-26T20:00:20.232Z,14.83
2017-10-26T20:02:49.329Z,14.70
2017-10-26T20:05:18.532Z,13.83
2017-10-26T20:07:47.745Z,13.50
2017-10-26T20:10:16.801Z,14.60
2017-10-26T20:12:46.085Z,13.57
2017-10-26T20:15:15.181Z,14.10
2017-10-26T20:17:51.221Z,13.50
2017-10-26T20:20:20.430Z,14.70
2017-10-26T20:22:49.545Z,15.03
2017-10-26T20:25:18.995Z,14.60
2017-10-26T20:27:51.044Z,14.40
2017-10-26T20:30:29.615Z,13.43
2017-10-26T20:32:58.774Z,13.47
2017-10-26T20:35:28.425Z,13.77
2017-10-26T20:37:58.014Z,14.30
2017-10-26T20:40:27.226Z,13.30
2017-10-26T20:42:56.679Z,13.70
2017-10-26T20:45:26.002Z,13.57
2017-10-26T20:48:09.815Z,12.70
2017-10-26T20:50:51.245Z,13.27
2017-10-26T20:53:25.976Z,12.87
2017-10-26T20:56:00.774Z,13.10
2017-10-26T20:58:35.537Z,12.87
2017-10-26T21:01:10.396Z,12.90
2017-10-26T21:03:45.240Z,12.13
2017-10-26T21:06:19.448Z,12.73
2017-10-26T21:08:54.392Z,12.97
2017-10-26T21:11:29.385Z,12.83
2017-10-26T21:14:05.519Z,12.60
2017-10-26T21:16:34.603Z,11.97
2017-10-26T21:19:03.660Z,11.70
2017-10-26T21:21:32.738Z,12.70
2017-10-26T21:24:04.306Z,13.07
2017-10-26T21:26:33.596Z,12.27
2017-10-26T21:29:10.756Z,13.07
2017-10-26T21:31:39.863Z,12.53
2017-10-26T21:34:09.118Z,12.60
2017-10-26T21:36:39.472Z,14.20
2017-10-26T21:39:10.376Z,13.93
2017-10-26T21:41:39.652Z,13.77
2017-10-26T21:44:08.807Z,13.90
2017-10-26T21:46:38.064Z,14.20
2017-10-26T21:49:13.312Z,13.97
2017-10-26T21:51:42.437Z,15.27
2017-10-26T21:54:11.547Z,15.00
2017-10-26T21:56:41.488Z,15.30
2017-10-26T21:59:11.673Z,16.13
2017-10-26T22:01:40.779Z,15.80
2017-10-26T22:04:10.026Z,17.03
2017-10-26T22:06:39.585Z,17.10
2017-10-26T22:09:09.742Z,17.40
2017-10-26T22:11:39.503Z,16.67
2017-10-26T22:14:08.737Z,17.00
2017-10-26T22:16:38.513Z,16.50
2017-10-26T22:19:07.669Z,18.73
2017-10-26T22:21:37.421Z,18.77
2017-10-26T22:24:06.908Z,18.23
2017-10-26T22:26:36.188Z,18.73
2017-10-26T22:29:05.396Z,21.17
2017-10-26T22:31:34.913Z,21.30
2017-10-26T22:34:04.164Z,21.40
2017-10-26T22:36:39.580Z,20.17
2017-10-26T22:39:09.091Z,21.20
2017-10-26T22:41:38.268Z,22.00
2017-10-26T22:44:15.441Z,23.50
2017-10-26T22:46:44.631Z,22.83
2017-10-26T22:49:14.031Z,24.90
2017-10-26T22:51:49.722Z,22.03
2017-10-26T22:54:19.067Z,21.20
2017-10-26T22:56:48.220Z,24.00
2017-10-26T22:59:17.560Z,21.90
2017-10-26T23:01:53.864Z,22.27
2017-10-26T23:04:23.097Z,22.33
2017-10-26T23:06:52.638Z,20.20
2017-10-26T23:09:26.617Z,20.93
2017-10-26T23:11:56.353Z,20.43
2017-10-26T23:14:25.645Z,20.17
2017-10-26T23:16:54.859Z,24.37
2017-10-26T23:19:23.988Z,23.97
2017-10-26T23:21:59.362Z,20.07
2017-10-26T23:24:43.861Z,19.07
2017-10-26T23:27:13.002Z,18.90
2017-10-26T23:29:42.230Z,20.70
2017-10-26T23:32:11.711Z,24.97
2017-10-26T23:34:52.968Z,21.60
2017-10-26T23:37:22.240Z,19.10
2017-10-26T23:39:51.612Z,18.90
2017-10-26T23:42:21.006Z,20.40
2017-10-26T23:44:50.324Z,19.30
2017-10-26T23:47:19.495Z,26.87
2017-10-26T23:49:48.660Z,31.83
2017-10-26T23:52:17.903Z,26.20
2017-10-26T23:54:47.281Z,33.57
2017-10-26T23:57:17.418Z,27.60
2017-10-26T23:59:53.102Z,27.53
